Weather at Brittas Bay Airfield [CLOSED]

Public forecast

Using degrees Celsius for public forecast. Weather courtesy of forecast.io.

Closest aviation weather report (METAR) to Brittas Bay Airfield

Closest report is Casement Air Base, 30.0 nm (55.6 km) NNW.

2024/05/20 18:00 (retrieved 41 minutes ago)

EIME 201800Z 08010KT 9999 FEW024 BKN210 17/12 Q1013

Closest aviation forecast (TAF) to Brittas Bay Airfield

Closest forecast is Dublin Airport, 35.0 nm (64.8 km) NNW.

2024/05/20 18:11 (retrieved 30 minutes ago)

TAF EIDW 201700Z 2018/2118 08010KT 9999 FEW018 PROB40 TEMPO 2018/2020 FEW020CB BECMG 2022/2024 VRB03KT PROB30 TEMPO 2100/2109 3000 -SHRA BR FEW020CB TEMPO 2109/2114 -SHRA FEW020CB PROB40 TEMPO 2109/2114 4000 SHRA BKN012 SCT020CB BECMG 2112/2114 11007KT